45.5°F
Current conditions from King Hill
Updated every 5 minutes
 
  Thursday October 30, 2014

Station Historical Data
Daily Summary for January 28, 2012 Units:  Both    English   Metric
« Previous Day
Next Day »
Daily Weekly Monthly Yearly Custom
  High: Low: Average:
Temperature: 38.6 °F /  3.7 °C 29.2 °F /  -1.6 °C 33.8 °F /  1 °C
Dew Point: 29.3 °F /  -1.5 °C 23.5 °F /  -4.7 °C 26.4 °F /  -3.1 °C
Humidity: 90% 62% 75%
Wind Speed: 12.0mph /  19.3km/h - 4.9mph /  7.9km/h
Wind Gust: 24.0mph /  38.6km/h - -
Wind- - WSW
Pressure: 29.92 in /  1013.1 hPa 29.67 in /  1004.6 hPa -
Precipitation: 0.00 in /  0 mm    
Historical Graphs
 
 
Tabular Data for January 28, 2012
Time Temperature Dew Point Pressure Wind Wind Speed Wind Gust Humidity Daily Rainfall
00:04 30.7 °F /  -0.7 °C 26.7 °F /  -2.9 °C 29.68in /  1005hPa WNW 12.0mph /  19.3km/h 19.0mph /  30.6km/h 85% 0.00in /  0mm
00:09 30.9 °F /  -0.6 °C 26.9 °F /  -2.8 °C 29.69in /  1005.3hPa NW 9.0mph /  14.5km/h 19.0mph /  30.6km/h 85% 0.00in /  0mm
00:14 31.0 °F /  -0.6 °C 26.7 °F /  -2.9 °C 29.69in /  1005.3hPa WNW 10.0mph /  16.1km/h 19.0mph /  30.6km/h 84% 0.00in /  0mm
00:19 31.0 °F /  -0.6 °C 27.0 °F /  -2.8 °C 29.69in /  1005.3hPa WNW 5.0mph /  8km/h 17.0mph /  27.4km/h 85% 0.00in /  0mm
00:24 31.1 °F /  -0.5 °C 27.1 °F /  -2.7 °C 29.70in /  1005.6hPa WNW 7.0mph /  11.3km/h 14.0mph /  22.5km/h 85% 0.00in /  0mm
00:29 31.1 °F /  -0.5 °C 26.8 °F /  -2.9 °C 29.71in /  1006hPa NW 6.0mph /  9.7km/h 14.0mph /  22.5km/h 84% 0.00in /  0mm
00:34 31.3 °F /  -0.4 °C 27.0 °F /  -2.8 °C 29.71in /  1006hPa WNW 7.0mph /  11.3km/h 17.0mph /  27.4km/h 84% 0.00in /  0mm
00:39 31.3 °F /  -0.4 °C 27.0 °F /  -2.8 °C 29.71in /  1006hPa WNW 8.0mph /  12.9km/h 17.0mph /  27.4km/h 84% 0.00in /  0mm
00:44 31.4 °F /  -0.3 °C 26.8 °F /  -2.9 °C 29.72in /  1006.3hPa NW 6.0mph /  9.7km/h 15.0mph /  24.1km/h 83% 0.00in /  0mm
00:49 31.4 °F /  -0.3 °C 27.1 °F /  -2.7 °C 29.72in /  1006.3hPa NW 6.0mph /  9.7km/h 15.0mph /  24.1km/h 84% 0.00in /  0mm
00:54 31.5 °F /  -0.3 °C 26.9 °F /  -2.8 °C 29.72in /  1006.3hPa NW 12.0mph /  19.3km/h 19.0mph /  30.6km/h 83% 0.00in /  0mm
00:59 31.6 °F /  -0.2 °C 27.0 °F /  -2.8 °C 29.73in /  1006.7hPa WNW 7.0mph /  11.3km/h 19.0mph /  30.6km/h 83% 0.00in /  0mm
01:04 31.6 °F /  -0.2 °C 27.0 °F /  -2.8 °C 29.73in /  1006.7hPa WNW 8.0mph /  12.9km/h 21.0mph /  33.8km/h 83% 0.00in /  0mm
01:09 31.7 °F /  -0.2 °C 26.8 °F /  -2.9 °C 29.73in /  1006.7hPa NW 9.0mph /  14.5km/h 21.0mph /  33.8km/h 82% 0.00in /  0mm
01:14 31.7 °F /  -0.2 °C 26.8 °F /  -2.9 °C 29.74in /  1007hPa NW 5.0mph /  8km/h 20.0mph /  32.2km/h 82% 0.00in /  0mm
01:19 31.7 °F /  -0.2 °C 26.8 °F /  -2.9 °C 29.74in /  1007hPa NW 7.0mph /  11.3km/h 16.0mph /  25.7km/h 82% 0.00in /  0mm
01:24 31.6 °F /  -0.2 °C 26.7 °F /  -2.9 °C 29.75in /  1007.3hPa WNW 9.0mph /  14.5km/h 21.0mph /  33.8km/h 82% 0.00in /  0mm
01:29 31.7 °F /  -0.2 °C 26.8 °F /  -2.9 °C 29.75in /  1007.3hPa NW 9.0mph /  14.5km/h 21.0mph /  33.8km/h 82% 0.00in /  0mm
01:34 31.7 °F /  -0.2 °C 27.1 °F /  -2.7 °C 29.75in /  1007.3hPa NNW 6.0mph /  9.7km/h 17.0mph /  27.4km/h 83% 0.00in /  0mm
01:39 31.7 °F /  -0.2 °C 27.1 °F /  -2.7 °C 29.75in /  1007.3hPa NW 6.0mph /  9.7km/h 23.0mph /  37km/h 83% 0.00in /  0mm
01:44 31.7 °F /  -0.2 °C 27.1 °F /  -2.7 °C 29.76in /  1007.7hPa NW 7.0mph /  11.3km/h 23.0mph /  37km/h 83% 0.00in /  0mm
01:49 31.7 °F /  -0.2 °C 27.1 °F /  -2.7 °C 29.77in /  1008hPa NW 8.0mph /  12.9km/h 16.0mph /  25.7km/h 83% 0.00in /  0mm
01:54 31.7 °F /  -0.2 °C 27.1 °F /  -2.7 °C 29.77in /  1008hPa NW 4.0mph /  6.4km/h 15.0mph /  24.1km/h 83% 0.00in /  0mm
01:59 31.7 °F /  -0.2 °C 27.1 °F /  -2.7 °C 29.77in /  1008hPa NW 4.0mph /  6.4km/h 11.0mph /  17.7km/h 83% 0.00in /  0mm
02:04 31.7 °F /  -0.2 °C 27.4 °F /  -2.6 °C 29.77in /  1008hPa WNW 3.0mph /  4.8km/h 11.0mph /  17.7km/h 84% 0.00in /  0mm
02:09 31.7 °F /  -0.2 °C 27.4 °F /  -2.6 °C 29.78in /  1008.4hPa NW 5.0mph /  8km/h 11.0mph /  17.7km/h 84% 0.00in /  0mm
02:14 31.7 °F /  -0.2 °C 27.4 °F /  -2.6 °C 29.78in /  1008.4hPa WNW 4.0mph /  6.4km/h 11.0mph /  17.7km/h 84% 0.00in /  0mm
02:19 31.7 °F /  -0.2 °C 27.4 °F /  -2.6 °C 29.79in /  1008.7hPa WNW 6.0mph /  9.7km/h 13.0mph /  20.9km/h 84% 0.00in /  0mm
02:24 31.7 °F /  -0.2 °C 27.4 °F /  -2.6 °C 29.79in /  1008.7hPa NW 3.0mph /  4.8km/h 13.0mph /  20.9km/h 84% 0.00in /  0mm
02:29 31.7 °F /  -0.2 °C 27.4 °F /  -2.6 °C 29.80in /  1009hPa WNW 6.0mph /  9.7km/h 10.0mph /  16.1km/h 84% 0.00in /  0mm
02:34 31.8 °F /  -0.1 °C 27.2 °F /  -2.7 °C 29.80in /  1009hPa WNW 6.0mph /  9.7km/h 12.0mph /  19.3km/h 83% 0.00in /  0mm
02:40 31.8 °F /  -0.1 °C 27.2 °F /  -2.7 °C 29.80in /  1009hPa WNW 5.0mph /  8km/h 12.0mph /  19.3km/h 83% 0.00in /  0mm
02:49 31.8 °F /  -0.1 °C 26.9 °F /  -2.8 °C 29.80in /  1009hPa WNW 5.0mph /  8km/h 13.0mph /  20.9km/h 82% 0.00in /  0mm
02:54 31.9 °F /  -0.1 °C 27.0 °F /  -2.8 °C 29.81in /  1009.4hPa WNW 6.0mph /  9.7km/h 12.0mph /  19.3km/h 82% 0.00in /  0mm
02:59 32.0 °F /  0 °C 26.8 °F /  -2.9 °C 29.81in /  1009.4hPa WNW 7.0mph /  11.3km/h 12.0mph /  19.3km/h 81% 0.00in /  0mm
03:04 32.1 °F /  0.1 °C 26.6 °F /  -3 °C 29.81in /  1009.4hPa NW 5.0mph /  8km/h 11.0mph /  17.7km/h 80% 0.00in /  0mm
03:09 32.0 °F /  0 °C 26.8 °F /  -2.9 °C 29.82in /  1009.7hPa NW 3.0mph /  4.8km/h 11.0mph /  17.7km/h 81% 0.00in /  0mm
03:14 32.0 °F /  0 °C 26.8 °F /  -2.9 °C 29.82in /  1009.7hPa NW 3.0mph /  4.8km/h 9.0mph /  14.5km/h 81% 0.00in /  0mm
03:19 32.0 °F /  0 °C 26.5 °F /  -3.1 °C 29.82in /  1009.7hPa NW 4.0mph /  6.4km/h 15.0mph /  24.1km/h 80% 0.00in /  0mm
03:24 32.0 °F /  0 °C 26.5 °F /  -3.1 °C 29.82in /  1009.7hPa NW 5.0mph /  8km/h 15.0mph /  24.1km/h 80% 0.00in /  0mm
03:29 32.0 °F /  0 °C 26.5 °F /  -3.1 °C 29.81in /  1009.4hPa NW 2.0mph /  3.2km/h 12.0mph /  19.3km/h 80% 0.00in /  0mm
03:34 31.9 °F /  -0.1 °C 26.4 °F /  -3.1 °C 29.82in /  1009.7hPa NW 6.0mph /  9.7km/h 12.0mph /  19.3km/h 80% 0.00in /  0mm
03:39 31.9 °F /  -0.1 °C 26.1 °F /  -3.3 °C 29.82in /  1009.7hPa NW 6.0mph /  9.7km/h 14.0mph /  22.5km/h 79% 0.00in /  0mm
03:49 31.9 °F /  -0.1 °C 26.1 °F /  -3.3 °C 29.83in /  1010hPa NW 2.0mph /  3.2km/h 11.0mph /  17.7km/h 79% 0.00in /  0mm
03:54 31.9 °F /  -0.1 °C 26.1 °F /  -3.3 °C 29.83in /  1010hPa NW 3.0mph /  4.8km/h 9.0mph /  14.5km/h 79% 0.00in /  0mm
03:59 31.9 °F /  -0.1 °C 25.8 °F /  -3.4 °C 29.83in /  1010hPa NW 4.0mph /  6.4km/h 9.0mph /  14.5km/h 78% 0.00in /  0mm
04:04 31.8 °F /  -0.1 °C 25.7 °F /  -3.5 °C 29.83in /  1010hPa NNW 5.0mph /  8km/h 13.0mph /  20.9km/h 78% 0.00in /  0mm
04:09 31.7 °F /  -0.2 °C 25.3 °F /  -3.7 °C 29.83in /  1010hPa NNW 3.0mph /  4.8km/h 13.0mph /  20.9km/h 77% 0.00in /  0mm
04:14 31.6 °F /  -0.2 °C 25.2 °F /  -3.8 °C 29.83in /  1010hPa NNW 1.0mph /  1.6km/h 8.0mph /  12.9km/h 77% 0.00in /  0mm
04:19 31.5 °F /  -0.3 °C 25.1 °F /  -3.8 °C 29.83in /  1010hPa North 2.0mph /  3.2km/h 7.0mph /  11.3km/h 77% 0.00in /  0mm
04:25 31.4 °F /  -0.3 °C 24.7 °F /  -4.1 °C 29.83in /  1010hPa NNW 2.0mph /  3.2km/h 7.0mph /  11.3km/h 76% 0.00in /  0mm
04:34 31.4 °F /  -0.3 °C 24.4 °F /  -4.2 °C 29.84in /  1010.4hPa NNW 2.0mph /  3.2km/h 8.0mph /  12.9km/h 75% 0.00in /  0mm
04:40 31.4 °F /  -0.3 °C 24.7 °F /  -4.1 °C 29.84in /  1010.4hPa Calm   8.0mph /  12.9km/h 76% 0.00in /  0mm
04:49 31.4 °F /  -0.3 °C 24.7 °F /  -4.1 °C 29.84in /  1010.4hPa NNW 2.0mph /  3.2km/h 7.0mph /  11.3km/h 76% 0.00in /  0mm
04:54 31.4 °F /  -0.3 °C 25.0 °F /  -3.9 °C 29.84in /  1010.4hPa NNW 2.0mph /  3.2km/h 9.0mph /  14.5km/h 77% 0.00in /  0mm
04:59 31.5 °F /  -0.3 °C 25.4 °F /  -3.7 °C 29.84in /  1010.4hPa North 1.0mph /  1.6km/h 9.0mph /  14.5km/h 78% 0.00in /  0mm
05:04 31.4 °F /  -0.3 °C 25.3 °F /  -3.7 °C 29.84in /  1010.4hPa NNW 2.0mph /  3.2km/h 7.0mph /  11.3km/h 78% 0.00in /  0mm
05:09 31.4 °F /  -0.3 °C 25.6 °F /  -3.6 °C 29.84in /  1010.4hPa NNW 1.0mph /  1.6km/h 7.0mph /  11.3km/h 79% 0.00in /  0mm
05:14 31.3 °F /  -0.4 °C 25.5 °F /  -3.6 °C 29.85in /  1010.7hPa Calm   6.0mph /  9.7km/h 79% 0.00in /  0mm
05:19 31.3 °F /  -0.4 °C 25.5 °F /  -3.6 °C 29.85in /  1010.7hPa Calm   4.0mph /  6.4km/h 79% 0.00in /  0mm
05:24 31.2 °F /  -0.4 °C 25.8 °F /  -3.4 °C 29.85in /  1010.7hPa Calm   4.0mph /  6.4km/h 80% 0.00in /  0mm
05:29 31.2 °F /  -0.4 °C 26.1 °F /  -3.3 °C 29.86in /  1011.1hPa NNW 1.0mph /  1.6km/h 5.0mph /  8km/h 81% 0.00in /  0mm
05:34 31.2 °F /  -0.4 °C 26.1 °F /  -3.3 °C 29.86in /  1011.1hPa NNW 2.0mph /  3.2km/h 8.0mph /  12.9km/h 81% 0.00in /  0mm
05:39 31.2 °F /  -0.4 °C 26.1 °F /  -3.3 °C 29.86in /  1011.1hPa NNE 1.0mph /  1.6km/h 8.0mph /  12.9km/h 81% 0.00in /  0mm
05:44 31.3 °F /  -0.4 °C 26.2 °F /  -3.2 °C 29.86in /  1011.1hPa Calm   6.0mph /  9.7km/h 81% 0.00in /  0mm
05:49 31.3 °F /  -0.4 °C 26.2 °F /  -3.2 °C 29.86in /  1011.1hPa Calm   4.0mph /  6.4km/h 81% 0.00in /  0mm
05:54 31.3 °F /  -0.4 °C 26.2 °F /  -3.2 °C 29.87in /  1011.4hPa NW 1.0mph /  1.6km/h 6.0mph /  9.7km/h 81% 0.00in /  0mm
05:59 31.3 °F /  -0.4 °C 26.2 °F /  -3.2 °C 29.87in /  1011.4hPa NW 2.0mph /  3.2km/h 6.0mph /  9.7km/h 81% 0.00in /  0mm
06:04 31.3 °F /  -0.4 °C 26.2 °F /  -3.2 °C 29.87in /  1011.4hPa Calm   6.0mph /  9.7km/h 81% 0.00in /  0mm
06:09 31.3 °F /  -0.4 °C 26.2 °F /  -3.2 °C 29.87in /  1011.4hPa WNW 3.0mph /  4.8km/h 6.0mph /  9.7km/h 81% 0.00in /  0mm
06:14 31.3 °F /  -0.4 °C 26.2 °F /  -3.2 °C 29.87in /  1011.4hPa Calm   6.0mph /  9.7km/h 81% 0.00in /  0mm
06:19 31.3 °F /  -0.4 °C 26.2 °F /  -3.2 °C 29.87in /  1011.4hPa Calm   3.0mph /  4.8km/h 81% 0.00in /  0mm
06:24 31.2 °F /  -0.4 °C 26.1 °F /  -3.3 °C 29.87in /  1011.4hPa Calm   2.0mph /  3.2km/h 81% 0.00in /  0mm
06:34 31.1 °F /  -0.5 °C 26.0 °F /  -3.3 °C 29.88in /  1011.7hPa NW 3.0mph /  4.8km/h 5.0mph /  8km/h 81% 0.00in /  0mm
06:39 31.1 °F /  -0.5 °C 26.0 °F /  -3.3 °C 29.89in /  1012.1hPa NNW 1.0mph /  1.6km/h 7.0mph /  11.3km/h 81% 0.00in /  0mm
06:44 31.1 °F /  -0.5 °C 26.0 °F /  -3.3 °C 29.89in /  1012.1hPa Calm   7.0mph /  11.3km/h 81% 0.00in /  0mm
06:49 31.0 °F /  -0.6 °C 25.6 °F /  -3.6 °C 29.89in /  1012.1hPa NW 4.0mph /  6.4km/h 8.0mph /  12.9km/h 80% 0.00in /  0mm
06:54 31.0 °F /  -0.6 °C 25.3 °F /  -3.7 °C 29.89in /  1012.1hPa NW 3.0mph /  4.8km/h 8.0mph /  12.9km/h 79% 0.00in /  0mm
06:59 31.0 °F /  -0.6 °C 24.9 °F /  -3.9 °C 29.90in /  1012.4hPa WNW 4.0mph /  6.4km/h 7.0mph /  11.3km/h 78% 0.00in /  0mm
07:04 31.0 °F /  -0.6 °C 24.9 °F /  -3.9 °C 29.90in /  1012.4hPa WNW 1.0mph /  1.6km/h 7.0mph /  11.3km/h 78% 0.00in /  0mm
07:09 30.9 °F /  -0.6 °C 24.9 °F /  -3.9 °C 29.90in /  1012.4hPa NNW 2.0mph /  3.2km/h 6.0mph /  9.7km/h 78% 0.00in /  0mm
07:14 30.8 °F /  -0.7 °C 24.4 °F /  -4.2 °C 29.90in /  1012.4hPa WNW 1.0mph /  1.6km/h 6.0mph /  9.7km/h 77% 0.00in /  0mm
07:19 30.8 °F /  -0.7 °C 24.8 °F /  -4 °C 29.90in /  1012.4hPa Calm   5.0mph /  8km/h 78% 0.00in /  0mm
07:24 30.7 °F /  -0.7 °C 24.7 °F /  -4.1 °C 29.90in /  1012.4hPa Calm   3.0mph /  4.8km/h 78% 0.00in /  0mm
07:29 30.6 °F /  -0.8 °C 24.6 °F /  -4.1 °C 29.90in /  1012.4hPa WNW 1.0mph /  1.6km/h 4.0mph /  6.4km/h 78% 0.00in /  0mm
07:34 30.4 °F /  -0.9 °C 24.4 °F /  -4.2 °C 29.90in /  1012.4hPa WNW 1.0mph /  1.6km/h 4.0mph /  6.4km/h 78% 0.00in /  0mm
07:39 30.4 °F /  -0.9 °C 24.1 °F /  -4.4 °C 29.90in /  1012.4hPa Calm   3.0mph /  4.8km/h 77% 0.00in /  0mm
07:44 30.3 °F /  -0.9 °C 24.0 °F /  -4.4 °C 29.90in /  1012.4hPa Calm   3.0mph /  4.8km/h 77% 0.00in /  0mm
07:49 30.1 °F /  -1.1 °C 23.8 °F /  -4.6 °C 29.90in /  1012.4hPa Calm     77% 0.00in /  0mm
07:54 29.9 °F /  -1.2 °C 23.9 °F /  -4.5 °C 29.90in /  1012.4hPa Calm     78% 0.00in /  0mm
07:59 29.8 °F /  -1.2 °C 23.8 °F /  -4.6 °C 29.90in /  1012.4hPa Calm     78% 0.00in /  0mm
08:04 29.6 °F /  -1.3 °C 23.6 °F /  -4.7 °C 29.90in /  1012.4hPa Calm     78% 0.00in /  0mm
08:09 29.3 °F /  -1.5 °C 23.6 °F /  -4.7 °C 29.90in /  1012.4hPa Calm     79% 0.00in /  0mm
08:14 29.2 °F /  -1.6 °C 23.5 °F /  -4.7 °C 29.90in /  1012.4hPa Calm   1.0mph /  1.6km/h 79% 0.00in /  0mm
08:19 29.2 °F /  -1.6 °C 23.5 °F /  -4.7 °C 29.90in /  1012.4hPa Calm   1.0mph /  1.6km/h 79% 0.00in /  0mm
08:24 29.4 °F /  -1.4 °C 23.7 °F /  -4.6 °C 29.90in /  1012.4hPa Calm     79% 0.00in /  0mm
08:29 29.6 °F /  -1.3 °C 23.9 °F /  -4.5 °C 29.90in /  1012.4hPa Calm     79% 0.00in /  0mm
08:34 30.0 °F /  -1.1 °C 24.0 °F /  -4.4 °C 29.90in /  1012.4hPa Calm     78% 0.00in /  0mm
08:39 30.4 °F /  -0.9 °C 24.1 °F /  -4.4 °C 29.91in /  1012.8hPa Calm     77% 0.00in /  0mm
08:44 30.6 °F /  -0.8 °C 24.3 °F /  -4.3 °C 29.90in /  1012.4hPa Calm     77% 0.00in /  0mm
08:49 30.7 °F /  -0.7 °C 24.0 °F /  -4.4 °C 29.90in /  1012.4hPa WNW 1.0mph /  1.6km/h 3.0mph /  4.8km/h 76% 0.00in /  0mm
08:59 30.8 °F /  -0.7 °C 24.1 °F /  -4.4 °C 29.90in /  1012.4hPa Calm   3.0mph /  4.8km/h 76% 0.00in /  0mm
09:04 30.8 °F /  -0.7 °C 23.8 °F /  -4.6 °C 29.89in /  1012.1hPa Calm     75% 0.00in /  0mm
09:09 31.1 °F /  -0.5 °C 24.4 °F /  -4.2 °C 29.90in /  1012.4hPa Calm     76% 0.00in /  0mm
09:14 32.0 °F /  0 °C 25.0 °F /  -3.9 °C 29.91in /  1012.8hPa Calm     75% 0.00in /  0mm
09:19 32.7 °F /  0.4 °C 25.3 °F /  -3.7 °C 29.90in /  1012.4hPa Calm   2.0mph /  3.2km/h 74% 0.00in /  0mm
09:24 33.1 °F /  0.6 °C 25.4 °F /  -3.7 °C 29.90in /  1012.4hPa Calm   2.0mph /  3.2km/h 73% 0.00in /  0mm
09:29 34.1 °F /  1.2 °C 26.0 °F /  -3.3 °C 29.90in /  1012.4hPa Calm   1.0mph /  1.6km/h 72% 0.00in /  0mm
09:34 34.7 °F /  1.5 °C 25.6 °F /  -3.6 °C 29.91in /  1012.8hPa Calm   3.0mph /  4.8km/h 69% 0.00in /  0mm
09:39 34.5 °F /  1.4 °C 24.7 °F /  -4.1 °C 29.91in /  1012.8hPa WNW 3.0mph /  4.8km/h 6.0mph /  9.7km/h 67% 0.00in /  0mm
09:44 33.9 °F /  1.1 °C 24.8 °F /  -4 °C 29.91in /  1012.8hPa WNW 2.0mph /  3.2km/h 6.0mph /  9.7km/h 69% 0.00in /  0mm
09:49 33.7 °F /  0.9 °C 25.0 °F /  -3.9 °C 29.92in /  1013.1hPa West 2.0mph /  3.2km/h 5.0mph /  8km/h 70% 0.00in /  0mm
09:54 33.7 °F /  0.9 °C 25.3 °F /  -3.7 °C 29.92in /  1013.1hPa West 1.0mph /  1.6km/h 5.0mph /  8km/h 71% 0.00in /  0mm
09:59 33.8 °F /  1 °C 25.1 °F /  -3.8 °C 29.92in /  1013.1hPa West 1.0mph /  1.6km/h 5.0mph /  8km/h 70% 0.00in /  0mm
10:04 34.0 °F /  1.1 °C 25.2 °F /  -3.8 °C 29.91in /  1012.8hPa Calm   4.0mph /  6.4km/h 70% 0.00in /  0mm
10:09 34.4 °F /  1.3 °C 25.3 °F /  -3.7 °C 29.91in /  1012.8hPa West 2.0mph /  3.2km/h 4.0mph /  6.4km/h 69% 0.00in /  0mm
10:14 34.7 °F /  1.5 °C 25.6 °F /  -3.6 °C 29.91in /  1012.8hPa Calm   4.0mph /  6.4km/h 69% 0.00in /  0mm
10:19 35.0 °F /  1.7 °C 25.2 °F /  -3.8 °C 29.92in /  1013.1hPa WSW 2.0mph /  3.2km/h 6.0mph /  9.7km/h 67% 0.00in /  0mm
10:24 35.2 °F /  1.8 °C 25.3 °F /  -3.7 °C 29.92in /  1013.1hPa Calm   6.0mph /  9.7km/h 67% 0.00in /  0mm
10:29 35.5 °F /  1.9 °C 25.3 °F /  -3.7 °C 29.92in /  1013.1hPa Calm   3.0mph /  4.8km/h 66% 0.00in /  0mm
10:34 35.8 °F /  2.1 °C 25.6 °F /  -3.6 °C 29.91in /  1012.8hPa Calm   4.0mph /  6.4km/h 66% 0.00in /  0mm
10:39 35.9 °F /  2.2 °C 25.3 °F /  -3.7 °C 29.91in /  1012.8hPa WSW 3.0mph /  4.8km/h 5.0mph /  8km/h 65% 0.00in /  0mm
10:44 36.0 °F /  2.2 °C 25.7 °F /  -3.5 °C 29.91in /  1012.8hPa Calm   5.0mph /  8km/h 66% 0.00in /  0mm
10:49 36.7 °F /  2.6 °C 26.4 °F /  -3.1 °C 29.90in /  1012.4hPa WSW 1.0mph /  1.6km/h 3.0mph /  4.8km/h 66% 0.00in /  0mm
10:54 37.1 °F /  2.8 °C 26.1 °F /  -3.3 °C 29.89in /  1012.1hPa WSW 2.0mph /  3.2km/h 4.0mph /  6.4km/h 64% 0.00in /  0mm
10:59 36.9 °F /  2.7 °C 26.2 °F /  -3.2 °C 29.89in /  1012.1hPa Calm   4.0mph /  6.4km/h 65% 0.00in /  0mm
11:04 36.9 °F /  2.7 °C 26.6 °F /  -3 °C 29.89in /  1012.1hPa SSE 4.0mph /  6.4km/h 8.0mph /  12.9km/h 66% 0.00in /  0mm
11:09 36.6 °F /  2.6 °C 26.3 °F /  -3.2 °C 29.89in /  1012.1hPa South 4.0mph /  6.4km/h 8.0mph /  12.9km/h 66% 0.00in /  0mm
11:14 36.5 °F /  2.5 °C 26.2 °F /  -3.2 °C 29.88in /  1011.7hPa SSW 4.0mph /  6.4km/h 7.0mph /  11.3km/h 66% 0.00in /  0mm
11:19 36.4 °F /  2.4 °C 25.8 °F /  -3.4 °C 29.89in /  1012.1hPa SW 4.0mph /  6.4km/h 8.0mph /  12.9km/h 65% 0.00in /  0mm
11:24 36.5 °F /  2.5 °C 25.9 °F /  -3.4 °C 29.89in /  1012.1hPa SW 3.0mph /  4.8km/h 8.0mph /  12.9km/h 65% 0.00in /  0mm
11:29 36.6 °F /  2.6 °C 26.3 °F /  -3.2 °C 29.88in /  1011.7hPa SSW 4.0mph /  6.4km/h 9.0mph /  14.5km/h 66% 0.00in /  0mm
11:34 36.8 °F /  2.7 °C 26.1 °F /  -3.3 °C 29.87in /  1011.4hPa SW 6.0mph /  9.7km/h 9.0mph /  14.5km/h 65% 0.00in /  0mm
11:40 36.6 °F /  2.6 °C 26.0 °F /  -3.3 °C 29.87in /  1011.4hPa SSW 4.0mph /  6.4km/h 10.0mph /  16.1km/h 65% 0.00in /  0mm
11:49 36.2 °F /  2.3 °C 25.9 °F /  -3.4 °C 29.86in /  1011.1hPa SSW 3.0mph /  4.8km/h 10.0mph /  16.1km/h 66% 0.00in /  0mm
11:54 36.5 °F /  2.5 °C 26.2 °F /  -3.2 °C 29.85in /  1010.7hPa South 4.0mph /  6.4km/h 10.0mph /  16.1km/h 66% 0.00in /  0mm
11:59 36.7 °F /  2.6 °C 26.0 °F /  -3.3 °C 29.84in /  1010.4hPa South 3.0mph /  4.8km/h 9.0mph /  14.5km/h 65% 0.00in /  0mm
12:04 36.7 °F /  2.6 °C 26.4 °F /  -3.1 °C 29.84in /  1010.4hPa South 2.0mph /  3.2km/h 9.0mph /  14.5km/h 66% 0.00in /  0mm
12:09 36.6 °F /  2.6 °C 26.3 °F /  -3.2 °C 29.84in /  1010.4hPa SSW 4.0mph /  6.4km/h 8.0mph /  12.9km/h 66% 0.00in /  0mm
12:14 36.3 °F /  2.4 °C 26.0 °F /  -3.3 °C 29.84in /  1010.4hPa SW 4.0mph /  6.4km/h 9.0mph /  14.5km/h 66% 0.00in /  0mm
12:19 36.2 °F /  2.3 °C 25.9 °F /  -3.4 °C 29.84in /  1010.4hPa SSW 6.0mph /  9.7km/h 11.0mph /  17.7km/h 66% 0.00in /  0mm
12:29 36.7 °F /  2.6 °C 26.4 °F /  -3.1 °C 29.83in /  1010hPa SW 2.0mph /  3.2km/h 8.0mph /  12.9km/h 66% 0.00in /  0mm
12:34 36.9 °F /  2.7 °C 26.6 °F /  -3 °C 29.83in /  1010hPa South 2.0mph /  3.2km/h 11.0mph /  17.7km/h 66% 0.00in /  0mm
12:39 37.6 °F /  3.1 °C 26.9 °F /  -2.8 °C 29.81in /  1009.4hPa SSW 2.0mph /  3.2km/h 11.0mph /  17.7km/h 65% 0.00in /  0mm
12:44 38.1 °F /  3.4 °C 27.0 °F /  -2.8 °C 29.81in /  1009.4hPa South 3.0mph /  4.8km/h 7.0mph /  11.3km/h 64% 0.00in /  0mm
12:49 38.3 °F /  3.5 °C 27.2 °F /  -2.7 °C 29.82in /  1009.7hPa SSW 5.0mph /  8km/h 11.0mph /  17.7km/h 64% 0.00in /  0mm
12:54 38.3 °F /  3.5 °C 26.8 °F /  -2.9 °C 29.81in /  1009.4hPa SSW 5.0mph /  8km/h 11.0mph /  17.7km/h 63% 0.00in /  0mm
12:59 38.6 °F /  3.7 °C 27.1 °F /  -2.7 °C 29.81in /  1009.4hPa SSW 4.0mph /  6.4km/h 8.0mph /  12.9km/h 63% 0.00in /  0mm
13:04 38.1 °F /  3.4 °C 26.2 °F /  -3.2 °C 29.80in /  1009hPa SW 6.0mph /  9.7km/h 12.0mph /  19.3km/h 62% 0.00in /  0mm
13:09 37.8 °F /  3.2 °C 26.3 °F /  -3.2 °C 29.80in /  1009hPa SSW 5.0mph /  8km/h 12.0mph /  19.3km/h 63% 0.00in /  0mm
13:14 37.8 °F /  3.2 °C 26.7 °F /  -2.9 °C 29.79in /  1008.7hPa SSW 6.0mph /  9.7km/h 13.0mph /  20.9km/h 64% 0.00in /  0mm
13:19 37.7 °F /  3.2 °C 26.6 °F /  -3 °C 29.79in /  1008.7hPa SSW 6.0mph /  9.7km/h 13.0mph /  20.9km/h 64% 0.00in /  0mm
13:24 37.5 °F /  3.1 °C 26.8 °F /  -2.9 °C 29.79in /  1008.7hPa SSW 5.0mph /  8km/h 13.0mph /  20.9km/h 65% 0.00in /  0mm
13:29 37.4 °F /  3 °C 26.7 °F /  -2.9 °C 29.79in /  1008.7hPa SSW 5.0mph /  8km/h 13.0mph /  20.9km/h 65% 0.00in /  0mm
13:34 37.5 °F /  3.1 °C 26.8 °F /  -2.9 °C 29.79in /  1008.7hPa SSW 6.0mph /  9.7km/h 9.0mph /  14.5km/h 65% 0.00in /  0mm
13:39 37.9 °F /  3.3 °C 27.6 °F /  -2.4 °C 29.78in /  1008.4hPa South 2.0mph /  3.2km/h 9.0mph /  14.5km/h 66% 0.00in /  0mm
13:44 38.4 °F /  3.6 °C 27.3 °F /  -2.6 °C 29.78in /  1008.4hPa SW 3.0mph /  4.8km/h 9.0mph /  14.5km/h 64% 0.00in /  0mm
13:49 38.0 °F /  3.3 °C 26.9 °F /  -2.8 °C 29.77in /  1008hPa SW 5.0mph /  8km/h 11.0mph /  17.7km/h 64% 0.00in /  0mm
13:54 37.9 °F /  3.3 °C 26.8 °F /  -2.9 °C 29.77in /  1008hPa SSW 4.0mph /  6.4km/h 11.0mph /  17.7km/h 64% 0.00in /  0mm
13:59 37.7 °F /  3.2 °C 26.6 °F /  -3 °C 29.77in /  1008hPa SW 6.0mph /  9.7km/h 9.0mph /  14.5km/h 64% 0.00in /  0mm
14:04 37.6 °F /  3.1 °C 26.9 °F /  -2.8 °C 29.77in /  1008hPa SSW 5.0mph /  8km/h 9.0mph /  14.5km/h 65% 0.00in /  0mm
14:09 37.6 °F /  3.1 °C 26.9 °F /  -2.8 °C 29.76in /  1007.7hPa Calm   9.0mph /  14.5km/h 65% 0.00in /  0mm
14:14 37.5 °F /  3.1 °C 26.8 °F /  -2.9 °C 29.76in /  1007.7hPa South 3.0mph /  4.8km/h 7.0mph /  11.3km/h 65% 0.00in /  0mm
14:19 37.4 °F /  3 °C 27.1 °F /  -2.7 °C 29.75in /  1007.3hPa Calm   7.0mph /  11.3km/h 66% 0.00in /  0mm
14:24 37.2 °F /  2.9 °C 27.3 °F /  -2.6 °C 29.74in /  1007hPa Calm   6.0mph /  9.7km/h 67% 0.00in /  0mm
14:29 37.1 °F /  2.8 °C 27.2 °F /  -2.7 °C 29.73in /  1006.7hPa Calm   4.0mph /  6.4km/h 67% 0.00in /  0mm
14:34 37.3 °F /  2.9 °C 27.4 °F /  -2.6 °C 29.73in /  1006.7hPa SSW 2.0mph /  3.2km/h 4.0mph /  6.4km/h 67% 0.00in /  0mm
14:39 37.5 °F /  3.1 °C 27.2 °F /  -2.7 °C 29.74in /  1007hPa SSW 3.0mph /  4.8km/h 6.0mph /  9.7km/h 66% 0.00in /  0mm
14:44 37.7 °F /  3.2 °C 27.4 °F /  -2.6 °C 29.74in /  1007hPa Calm   6.0mph /  9.7km/h 66% 0.00in /  0mm
14:49 37.9 °F /  3.3 °C 27.6 °F /  -2.4 °C 29.73in /  1006.7hPa South 2.0mph /  3.2km/h 6.0mph /  9.7km/h 66% 0.00in /  0mm
14:54 37.8 °F /  3.2 °C 27.5 °F /  -2.5 °C 29.73in /  1006.7hPa South 3.0mph /  4.8km/h 6.0mph /  9.7km/h 66% 0.00in /  0mm
14:59 37.7 °F /  3.2 °C 27.4 °F /  -2.6 °C 29.73in /  1006.7hPa South 1.0mph /  1.6km/h 6.0mph /  9.7km/h 66% 0.00in /  0mm
15:04 37.7 °F /  3.2 °C 27.4 °F /  -2.6 °C 29.72in /  1006.3hPa South 2.0mph /  3.2km/h 6.0mph /  9.7km/h 66% 0.00in /  0mm
15:09 37.5 °F /  3.1 °C 27.2 °F /  -2.7 °C 29.72in /  1006.3hPa SSW 1.0mph /  1.6km/h 4.0mph /  6.4km/h 66% 0.00in /  0mm
15:14 37.3 °F /  2.9 °C 27.0 °F /  -2.8 °C 29.72in /  1006.3hPa SW 2.0mph /  3.2km/h 6.0mph /  9.7km/h 66% 0.00in /  0mm
15:19 37.1 °F /  2.8 °C 26.4 °F /  -3.1 °C 29.72in /  1006.3hPa SSW 3.0mph /  4.8km/h 6.0mph /  9.7km/h 65% 0.00in /  0mm
15:24 37.0 °F /  2.8 °C 26.7 °F /  -2.9 °C 29.71in /  1006hPa SSW 2.0mph /  3.2km/h 5.0mph /  8km/h 66% 0.00in /  0mm
15:29 37.1 °F /  2.8 °C 26.8 °F /  -2.9 °C 29.71in /  1006hPa SSW 2.0mph /  3.2km/h 5.0mph /  8km/h 66% 0.00in /  0mm
15:34 37.3 °F /  2.9 °C 27.0 °F /  -2.8 °C 29.70in /  1005.6hPa SSW 2.0mph /  3.2km/h 6.0mph /  9.7km/h 66% 0.00in /  0mm
15:39 37.5 °F /  3.1 °C 26.8 °F /  -2.9 °C 29.70in /  1005.6hPa South 3.0mph /  4.8km/h 8.0mph /  12.9km/h 65% 0.00in /  0mm
15:44 37.5 °F /  3.1 °C 27.2 °F /  -2.7 °C 29.69in /  1005.3hPa SSW 4.0mph /  6.4km/h 8.0mph /  12.9km/h 66% 0.00in /  0mm
15:49 37.3 °F /  2.9 °C 27.0 °F /  -2.8 °C 29.69in /  1005.3hPa SSW 3.0mph /  4.8km/h 6.0mph /  9.7km/h 66% 0.00in /  0mm
15:54 37.3 °F /  2.9 °C 27.0 °F /  -2.8 °C 29.69in /  1005.3hPa SSW 3.0mph /  4.8km/h 8.0mph /  12.9km/h 66% 0.00in /  0mm
15:59 37.4 °F /  3 °C 27.1 °F /  -2.7 °C 29.68in /  1005hPa SSW 3.0mph /  4.8km/h 8.0mph /  12.9km/h 66% 0.00in /  0mm
16:04 37.4 °F /  3 °C 27.1 °F /  -2.7 °C 29.68in /  1005hPa South 5.0mph /  8km/h 9.0mph /  14.5km/h 66% 0.00in /  0mm
16:09 37.4 °F /  3 °C 27.1 °F /  -2.7 °C 29.67in /  1004.6hPa South 6.0mph /  9.7km/h 12.0mph /  19.3km/h 66% 0.00in /  0mm
16:14 37.3 °F /  2.9 °C 27.0 °F /  -2.8 °C 29.67in /  1004.6hPa SSW 4.0mph /  6.4km/h 12.0mph /  19.3km/h 66% 0.00in /  0mm
16:19 37.2 °F /  2.9 °C 27.3 °F /  -2.6 °C 29.67in /  1004.6hPa SSW 4.0mph /  6.4km/h 9.0mph /  14.5km/h 67% 0.00in /  0mm
16:24 37.0 °F /  2.8 °C 27.1 °F /  -2.7 °C 29.67in /  1004.6hPa SW 4.0mph /  6.4km/h 8.0mph /  12.9km/h 67% 0.00in /  0mm
16:29 36.8 °F /  2.7 °C 27.2 °F /  -2.7 °C 29.67in /  1004.6hPa Calm   7.0mph /  11.3km/h 68% 0.00in /  0mm
16:34 36.6 °F /  2.6 °C 27.0 °F /  -2.8 °C 29.68in /  1005hPa SW 1.0mph /  1.6km/h 6.0mph /  9.7km/h 68% 0.00in /  0mm
16:39 36.2 °F /  2.3 °C 27.0 °F /  -2.8 °C 29.69in /  1005.3hPa WSW 4.0mph /  6.4km/h 12.0mph /  19.3km/h 69% 0.00in /  0mm
16:49 35.9 °F /  2.2 °C 26.7 °F /  -2.9 °C 29.70in /  1005.6hPa SW 8.0mph /  12.9km/h 13.0mph /  20.9km/h 69% 0.00in /  0mm
16:54 35.9 °F /  2.2 °C 26.7 °F /  -2.9 °C 29.70in /  1005.6hPa SW 7.0mph /  11.3km/h 15.0mph /  24.1km/h 69% 0.00in /  0mm
16:59 35.9 °F /  2.2 °C 26.4 °F /  -3.1 °C 29.70in /  1005.6hPa SSW 9.0mph /  14.5km/h 18.0mph /  29km/h 68% 0.00in /  0mm
17:04 35.7 °F /  2.1 °C 26.2 °F /  -3.2 °C 29.71in /  1006hPa SW 6.0mph /  9.7km/h 18.0mph /  29km/h 68% 0.00in /  0mm
17:09 35.6 °F /  2 °C 26.1 °F /  -3.3 °C 29.70in /  1005.6hPa SSW 8.0mph /  12.9km/h 19.0mph /  30.6km/h 68% 0.00in /  0mm
17:14 35.5 °F /  1.9 °C 26.0 °F /  -3.3 °C 29.70in /  1005.6hPa SSW 8.0mph /  12.9km/h 19.0mph /  30.6km/h 68% 0.00in /  0mm
17:19 35.3 °F /  1.8 °C 26.2 °F /  -3.2 °C 29.70in /  1005.6hPa SSW 8.0mph /  12.9km/h 24.0mph /  38.6km/h 69% 0.00in /  0mm
17:24 35.3 °F /  1.8 °C 26.2 °F /  -3.2 °C 29.70in /  1005.6hPa SSW 6.0mph /  9.7km/h 24.0mph /  38.6km/h 69% 0.00in /  0mm
17:29 35.2 °F /  1.8 °C 26.1 °F /  -3.3 °C 29.71in /  1006hPa SSW 6.0mph /  9.7km/h 15.0mph /  24.1km/h 69% 0.00in /  0mm
17:35 35.2 °F /  1.8 °C 26.1 °F /  -3.3 °C 29.71in /  1006hPa SSW 5.0mph /  8km/h 13.0mph /  20.9km/h 69% 0.00in /  0mm
17:44 35.0 °F /  1.7 °C 25.9 °F /  -3.4 °C 29.71in /  1006hPa SW 7.0mph /  11.3km/h 15.0mph /  24.1km/h 69% 0.00in /  0mm
17:49 35.0 °F /  1.7 °C 25.9 °F /  -3.4 °C 29.71in /  1006hPa SSW 9.0mph /  14.5km/h 18.0mph /  29km/h 69% 0.00in /  0mm
17:54 35.2 °F /  1.8 °C 25.7 °F /  -3.5 °C 29.71in /  1006hPa SSW 6.0mph /  9.7km/h 18.0mph /  29km/h 68% 0.00in /  0mm
17:59 35.3 °F /  1.8 °C 25.8 °F /  -3.4 °C 29.71in /  1006hPa South 5.0mph /  8km/h 11.0mph /  17.7km/h 68% 0.00in /  0mm
18:04 35.4 °F /  1.9 °C 25.5 °F /  -3.6 °C 29.70in /  1005.6hPa South 9.0mph /  14.5km/h 18.0mph /  29km/h 67% 0.00in /  0mm
18:09 35.6 °F /  2 °C 25.7 °F /  -3.5 °C 29.71in /  1006hPa SSW 5.0mph /  8km/h 19.0mph /  30.6km/h 67% 0.00in /  0mm
18:14 35.7 °F /  2.1 °C 25.8 °F /  -3.4 °C 29.71in /  1006hPa SSW 9.0mph /  14.5km/h 19.0mph /  30.6km/h 67% 0.00in /  0mm
18:19 35.7 °F /  2.1 °C 25.8 °F /  -3.4 °C 29.71in /  1006hPa SSW 7.0mph /  11.3km/h 21.0mph /  33.8km/h 67% 0.00in /  0mm
18:24 35.6 °F /  2 °C 25.7 °F /  -3.5 °C 29.70in /  1005.6hPa SSW 7.0mph /  11.3km/h 21.0mph /  33.8km/h 67% 0.00in /  0mm
18:29 35.5 °F /  1.9 °C 25.6 °F /  -3.6 °C 29.70in /  1005.6hPa SSW 7.0mph /  11.3km/h 16.0mph /  25.7km/h 67% 0.00in /  0mm
18:34 35.4 °F /  1.9 °C 25.9 °F /  -3.4 °C 29.70in /  1005.6hPa SSW 6.0mph /  9.7km/h 16.0mph /  25.7km/h 68% 0.00in /  0mm
18:39 35.4 °F /  1.9 °C 25.9 °F /  -3.4 °C 29.71in /  1006hPa SW 9.0mph /  14.5km/h 19.0mph /  30.6km/h 68% 0.00in /  0mm
18:44 35.4 °F /  1.9 °C 25.9 °F /  -3.4 °C 29.71in /  1006hPa SSW 8.0mph /  12.9km/h 19.0mph /  30.6km/h 68% 0.00in /  0mm
18:49 35.4 °F /  1.9 °C 25.9 °F /  -3.4 °C 29.71in /  1006hPa SSW 8.0mph /  12.9km/h 18.0mph /  29km/h 68% 0.00in /  0mm
18:54 35.4 °F /  1.9 °C 25.9 °F /  -3.4 °C 29.71in /  1006hPa SSW 5.0mph /  8km/h 16.0mph /  25.7km/h 68% 0.00in /  0mm
18:59 35.5 °F /  1.9 °C 26.3 °F /  -3.2 °C 29.71in /  1006hPa SSW 7.0mph /  11.3km/h 16.0mph /  25.7km/h 69% 0.00in /  0mm
19:04 35.5 °F /  1.9 °C 26.3 °F /  -3.2 °C 29.70in /  1005.6hPa SSW 7.0mph /  11.3km/h 16.0mph /  25.7km/h 69% 0.00in /  0mm
19:09 35.6 °F /  2 °C 26.1 °F /  -3.3 °C 29.70in /  1005.6hPa SSW 6.0mph /  9.7km/h 15.0mph /  24.1km/h 68% 0.00in /  0mm
19:14 35.5 °F /  1.9 °C 26.0 °F /  -3.3 °C 29.70in /  1005.6hPa SSW 8.0mph /  12.9km/h 16.0mph /  25.7km/h 68% 0.00in /  0mm
19:19 35.5 °F /  1.9 °C 26.0 °F /  -3.3 °C 29.70in /  1005.6hPa SW 9.0mph /  14.5km/h 16.0mph /  25.7km/h 68% 0.00in /  0mm
19:24 35.6 °F /  2 °C 26.1 °F /  -3.3 °C 29.70in /  1005.6hPa SSW 6.0mph /  9.7km/h 17.0mph /  27.4km/h 68% 0.00in /  0mm
19:29 35.5 °F /  1.9 °C 26.0 °F /  -3.3 °C 29.70in /  1005.6hPa SSW 5.0mph /  8km/h 17.0mph /  27.4km/h 68% 0.00in /  0mm
19:34 35.4 °F /  1.9 °C 25.9 °F /  -3.4 °C 29.70in /  1005.6hPa SSW 8.0mph /  12.9km/h 16.0mph /  25.7km/h 68% 0.00in /  0mm
19:39 35.5 °F /  1.9 °C 26.0 °F /  -3.3 °C 29.70in /  1005.6hPa South 6.0mph /  9.7km/h 16.0mph /  25.7km/h 68% 0.00in /  0mm
19:49 35.3 °F /  1.8 °C 25.8 °F /  -3.4 °C 29.69in /  1005.3hPa SSW 7.0mph /  11.3km/h 15.0mph /  24.1km/h 68% 0.00in /  0mm
19:54 35.3 °F /  1.8 °C 25.8 °F /  -3.4 °C 29.69in /  1005.3hPa SSW 7.0mph /  11.3km/h 15.0mph /  24.1km/h 68% 0.00in /  0mm
19:59 35.2 °F /  1.8 °C 25.7 °F /  -3.5 °C 29.69in /  1005.3hPa SW 5.0mph /  8km/h 15.0mph /  24.1km/h 68% 0.00in /  0mm
20:04 35.1 °F /  1.7 °C 26.0 °F /  -3.3 °C 29.69in /  1005.3hPa SW 5.0mph /  8km/h 15.0mph /  24.1km/h 69% 0.00in /  0mm
20:09 35.0 °F /  1.7 °C 25.9 °F /  -3.4 °C 29.69in /  1005.3hPa SSW 7.0mph /  11.3km/h 12.0mph /  19.3km/h 69% 0.00in /  0mm
20:14 35.1 °F /  1.7 °C 26.0 °F /  -3.3 °C 29.68in /  1005hPa SSW 7.0mph /  11.3km/h 13.0mph /  20.9km/h 69% 0.00in /  0mm
20:19 35.3 °F /  1.8 °C 25.8 °F /  -3.4 °C 29.68in /  1005hPa SSW 5.0mph /  8km/h 14.0mph /  22.5km/h 68% 0.00in /  0mm
20:24 35.3 °F /  1.8 °C 25.8 °F /  -3.4 °C 29.68in /  1005hPa SSW 4.0mph /  6.4km/h 14.0mph /  22.5km/h 68% 0.00in /  0mm
20:29 35.5 °F /  1.9 °C 26.3 °F /  -3.2 °C 29.68in /  1005hPa SSW 5.0mph /  8km/h 11.0mph /  17.7km/h 69% 0.00in /  0mm
20:34 35.9 °F /  2.2 °C 26.4 °F /  -3.1 °C 29.68in /  1005hPa SSW 8.0mph /  12.9km/h 19.0mph /  30.6km/h 68% 0.00in /  0mm
20:44 36.5 °F /  2.5 °C 26.6 °F /  -3 °C 29.69in /  1005.3hPa SW 7.0mph /  11.3km/h 19.0mph /  30.6km/h 67% 0.00in /  0mm
20:49 36.6 °F /  2.6 °C 26.7 °F /  -2.9 °C 29.69in /  1005.3hPa SW 6.0mph /  9.7km/h 15.0mph /  24.1km/h 67% 0.00in /  0mm
20:54 36.1 °F /  2.3 °C 28.6 °F /  -1.9 °C 29.70in /  1005.6hPa West 9.0mph /  14.5km/h 15.0mph /  24.1km/h 74% 0.00in /  0mm
20:59 34.9 °F /  1.6 °C 29.1 °F /  -1.6 °C 29.72in /  1006.3hPa West 11.0mph /  17.7km/h 18.0mph /  29km/h 79% 0.00in /  0mm
21:04 33.5 °F /  0.8 °C 28.9 °F /  -1.7 °C 29.71in /  1006hPa WSW 8.0mph /  12.9km/h 24.0mph /  38.6km/h 83% 0.00in /  0mm
21:09 32.8 °F /  0.4 °C 28.8 °F /  -1.8 °C 29.70in /  1005.6hPa WSW 6.0mph /  9.7km/h 24.0mph /  38.6km/h 85% 0.00in /  0mm
21:14 32.6 °F /  0.3 °C 28.9 °F /  -1.7 °C 29.70in /  1005.6hPa SW 8.0mph /  12.9km/h 16.0mph /  25.7km/h 86% 0.00in /  0mm
21:19 32.4 °F /  0.2 °C 29.0 °F /  -1.7 °C 29.70in /  1005.6hPa SW 3.0mph /  4.8km/h 16.0mph /  25.7km/h 87% 0.00in /  0mm
21:24 32.2 °F /  0.1 °C 28.8 °F /  -1.8 °C 29.70in /  1005.6hPa SW 5.0mph /  8km/h 16.0mph /  25.7km/h 87% 0.00in /  0mm
21:29 32.1 °F /  0.1 °C 29.0 °F /  -1.7 °C 29.70in /  1005.6hPa SW 4.0mph /  6.4km/h 12.0mph /  19.3km/h 88% 0.00in /  0mm
21:34 32.0 °F /  0 °C 28.9 °F /  -1.7 °C 29.70in /  1005.6hPa SW 6.0mph /  9.7km/h 13.0mph /  20.9km/h 88% 0.00in /  0mm
21:39 32.0 °F /  0 °C 28.9 °F /  -1.7 °C 29.69in /  1005.3hPa SW 6.0mph /  9.7km/h 13.0mph /  20.9km/h 88% 0.00in /  0mm
21:44 32.0 °F /  0 °C 29.1 °F /  -1.6 °C 29.69in /  1005.3hPa SSW 5.0mph /  8km/h 12.0mph /  19.3km/h 89% 0.00in /  0mm
21:49 31.9 °F /  -0.1 °C 29.0 °F /  -1.7 °C 29.69in /  1005.3hPa SSW 6.0mph /  9.7km/h 14.0mph /  22.5km/h 89% 0.00in /  0mm
21:54 31.9 °F /  -0.1 °C 29.0 °F /  -1.7 °C 29.68in /  1005hPa SSW 6.0mph /  9.7km/h 14.0mph /  22.5km/h 89% 0.00in /  0mm
21:59 31.8 °F /  -0.1 °C 28.9 °F /  -1.7 °C 29.68in /  1005hPa SSW 5.0mph /  8km/h 12.0mph /  19.3km/h 89% 0.00in /  0mm
22:04 31.8 °F /  -0.1 °C 28.9 °F /  -1.7 °C 29.68in /  1005hPa SSW 6.0mph /  9.7km/h 12.0mph /  19.3km/h 89% 0.00in /  0mm
22:09 31.8 °F /  -0.1 °C 29.2 °F /  -1.6 °C 29.68in /  1005hPa SW 5.0mph /  8km/h 11.0mph /  17.7km/h 90% 0.00in /  0mm
22:14 31.8 °F /  -0.1 °C 29.2 °F /  -1.6 °C 29.68in /  1005hPa SW 6.0mph /  9.7km/h 12.0mph /  19.3km/h 90% 0.00in /  0mm
22:19 31.9 °F /  -0.1 °C 29.3 °F /  -1.5 °C 29.68in /  1005hPa SSW 9.0mph /  14.5km/h 13.0mph /  20.9km/h 90% 0.00in /  0mm
22:25 31.7 °F /  -0.2 °C 29.1 °F /  -1.6 °C 29.68in /  1005hPa SW 9.0mph /  14.5km/h 18.0mph /  29km/h 90% 0.00in /  0mm
22:29 31.5 °F /  -0.3 °C 28.9 °F /  -1.7 °C 29.69in /  1005.3hPa WSW 9.0mph /  14.5km/h 23.0mph /  37km/h 90% 0.00in /  0mm
22:39 31.3 °F /  -0.4 °C 28.4 °F /  -2 °C 29.69in /  1005.3hPa SW 8.0mph /  12.9km/h 20.0mph /  32.2km/h 89% 0.00in /  0mm
22:44 31.5 °F /  -0.3 °C 28.4 °F /  -2 °C 29.70in /  1005.6hPa SW 9.0mph /  14.5km/h 20.0mph /  32.2km/h 88% 0.00in /  0mm
22:49 31.9 °F /  -0.1 °C 28.5 °F /  -1.9 °C 29.70in /  1005.6hPa SSW 6.0mph /  9.7km/h 15.0mph /  24.1km/h 87% 0.00in /  0mm
22:54 31.9 °F /  -0.1 °C 28.5 °F /  -1.9 °C 29.70in /  1005.6hPa SW 7.0mph /  11.3km/h 17.0mph /  27.4km/h 87% 0.00in /  0mm
22:59 31.9 °F /  -0.1 °C 28.2 °F /  -2.1 °C 29.70in /  1005.6hPa SSW 6.0mph /  9.7km/h 17.0mph /  27.4km/h 86% 0.00in /  0mm
23:04 31.9 °F /  -0.1 °C 28.5 °F /  -1.9 °C 29.70in /  1005.6hPa South 5.0mph /  8km/h 13.0mph /  20.9km/h 87% 0.00in /  0mm
23:09 31.9 °F /  -0.1 °C 28.5 °F /  -1.9 °C 29.70in /  1005.6hPa SSW 5.0mph /  8km/h 12.0mph /  19.3km/h 87% 0.00in /  0mm
23:14 31.8 °F /  -0.1 °C 28.4 °F /  -2 °C 29.71in /  1006hPa SW 7.0mph /  11.3km/h 14.0mph /  22.5km/h 87% 0.00in /  0mm
23:19 31.7 °F /  -0.2 °C 28.0 °F /  -2.2 °C 29.72in /  1006.3hPa WSW 11.0mph /  17.7km/h 19.0mph /  30.6km/h 86% 0.00in /  0mm
23:24 31.6 °F /  -0.2 °C 27.9 °F /  -2.3 °C 29.72in /  1006.3hPa SW 7.0mph /  11.3km/h 19.0mph /  30.6km/h 86% 0.00in /  0mm
23:29 31.5 °F /  -0.3 °C 27.5 °F /  -2.5 °C 29.72in /  1006.3hPa WSW 8.0mph /  12.9km/h 19.0mph /  30.6km/h 85% 0.00in /  0mm
23:34 31.5 °F /  -0.3 °C 27.8 °F /  -2.3 °C 29.72in /  1006.3hPa WSW 4.0mph /  6.4km/h 19.0mph /  30.6km/h 86% 0.00in /  0mm
23:39 31.4 °F /  -0.3 °C 27.7 °F /  -2.4 °C 29.72in /  1006.3hPa SW 4.0mph /  6.4km/h 15.0mph /  24.1km/h 86% 0.00in /  0mm
23:45 31.4 °F /  -0.3 °C 27.4 °F /  -2.6 °C 29.72in /  1006.3hPa SW 3.0mph /  4.8km/h 8.0mph /  12.9km/h 85% 0.00in /  0mm
23:54 31.3 °F /  -0.4 °C 27.6 °F /  -2.4 °C 29.73in /  1006.7hPa West 5.0mph /  8km/h 12.0mph /  19.3km/h 86% 0.00in /  0mm
23:59 31.2 °F /  -0.4 °C 27.5 °F /  -2.5 °C 29.73in /  1006.7hPa WSW 4.0mph /  6.4km/h 12.0mph /  19.3km/h 86% 0.00in /  0mm
Westford Weather
Compliments of Weather Underground

 
 
Current Radar Loop:

Copyright © WestfordWeather.net 2007-2014. All rights reserved.